Fort Thomas, Arizona
Current Conditions -  °F | °C
As of 4:51 AM on Monday 24 Nov 2014 (Local Time) from KSAD Reporting Station
Clear Clear  
Wind Chill: 24°   Ceiling: Unl
Heat Index: 29°   Visibility: 10mi
Dew Point:   Wind: 5mph
Humidity: 29%   Direction: 150°SSE
Pressure: 30.16"   Gusts: NA
Location:  33.04°N, 109.96°W
Report Text: KSAD 241151Z AUTO 15004KT 10SM CLR M02/M18 A3016 RMK AO2 SLP206 T10171178 10044 21022 53001
Loading
Personal Weather Stations






























Interactive Weather Map New forecast layout! Learn more

10-Day Weather Forecast

Advertisements
Track Severe Weather on mobile